METAR Data
IDs: Format: Raw Decoded Include TAF

Data at: 0638 UTC 11 Dec 2018

PAEM 110609Z AUTO 33013KT 2SM -SN BR OVC019 M07/M08 A2885 RMK AO2 P0000 FZRANO
PAEM 110556Z AUTO 33011KT 1 3/4SM -SN BR BKN017 OVC024 M07/M08 A2885 RMK AO2 SLP828 P0000 60000 T10721083 11072 21089 55002 FZRANO
PAEM 110545Z AUTO 34012KT 1 3/4SM -SN BR FEW016 OVC024 M07/M08 A2885 RMK AO2 P0000 FZRANO
PAEM 110510Z AUTO 34011KT 2 1/2SM -SN BR OVC028 M08/M08 A2885 RMK AO2 P0000 FZRANO
PAEM 110456Z AUTO 34012KT 2 1/2SM -SN BR FEW019 OVC030 M08/M08 A2885 RMK AO2 SLP827 P0000 T10781083 FZRANO
PAEM 110452Z AUTO 33014KT 3SM -SN BR SCT019 OVC030 M08/M08 A2885 RMK AO2 P0000 FZRANO
PAEM 110356Z AUTO 33011KT 2 1/2SM -SN BR OVC017 M08/M09 A2886 RMK AO2 SLP830 P0000 T10781089 FZRANO
PAEM 110348Z AUTO 34012KT 2 1/2SM -SN BR OVC015 M08/M09 A2886 RMK AO2 P0000 FZRANO
PAEM 110324Z AUTO 34010KT 2SM -SN BR OVC013 M08/M09 A2887 RMK AO2 VIS 1 3/4V3 P0000 FZRANO
PAEM 110310Z AUTO 35010KT 1 3/4SM -SN BR OVC013 M08/M09 A2887 RMK AO2 P0000 FZRANO
PAEM 110256Z AUTO 35008KT 5SM -SN BR OVC013 M08/M09 A2887 RMK AO2 SLP835 P0000 60000 T10831094 53001 FZRANO
PAEM 110156Z AUTO 35012KT 9SM -SN OVC013 M08/M09 A2887 RMK AO2 SLP833 P0000 T10831094 FZRANO
PAEM 110139Z AUTO 36011KT 9SM -SN OVC013 M08/M09 A2887 RMK AO2 P0000 FZRANO
PAEM 110108Z AUTO 35013KT 9SM -SN OVC015 M08/M09 A2886 RMK AO2 P0000 FZRANO
PAEM 110056Z AUTO 35012KT 9SM -SN OVC013 M08/M09 A2886 RMK AO2 SLP831 P0000 T10831094 FZRANO
PAEM 102356Z AUTO 36012KT 5SM -SN BR BKN019 OVC023 M09/M10 A2887 RMK AO2 SLP834 P0000 60000 T10891100 11078 21094 58004 FZRANO
PAEM 102329Z AUTO 36014KT 5SM -SN BR BKN016 OVC031 M09/M10 A2887 RMK AO2 P0000 FZRANO
PAEM 102256Z AUTO 36013KT 9SM -SN OVC014 M09/M10 A2888 RMK AO2 SLP837 P0000 T10891100 FZRANO
PAEM 102223Z AUTO 36013KT 9SM -SN OVC030 M09/M10 A2888 RMK AO2 P0000 FZRANO
PAEM 102156Z AUTO 36012KT 9SM -SN SCT013 OVC028 M09/M10 A2888 RMK AO2 SLP837 P0000 T10891100 FZRANO
PAEM 102151Z AUTO 01012KT 9SM -SN SCT013 OVC028 M09/M10 A2888 RMK AO2 P0000 FZRANO
PAEM 102138Z AUTO 01012KT 7SM -SN BKN013 OVC026 M09/M10 A2889 RMK AO2 P0000 FZRANO
PAEM 102056Z AUTO 01012KT 9SM -SN OVC024 M09/M10 A2889 RMK AO2 SLP841 P0000 60000 T10891100 53006 FZRANO
PAEM 102032Z AUTO 01011KT 9SM -SN BKN022 OVC031 M09/M10 A2889 RMK AO2 P0000 FZRANO
PAEM 102014Z AUTO 01012KT 9SM -SN SCT011 OVC031 M09/M11 A2889 RMK AO2 P0000 FZRANO
PAEM 101956Z AUTO 01012KT 9SM -SN OVC011 M09/M10 A2888 RMK AO2 SLP838 P0000 T10891100 FZRANO
PAEM 101856Z AUTO 02013KT 9SM -SN OVC011 M08/M09 A2887 RMK AO2 SLP836 P0000 T10831094 FZRANO
PAEM 101756Z AUTO 02014KT 9SM -SN BKN011 OVC032 M08/M09 A2887 RMK AO2 SLP836 P0000 60000 T10781089 11078 21144 58006 FZRANO
PAEM 101743Z AUTO 01011KT 7SM -SN SCT013 OVC030 M08/M09 A2888 RMK AO2 P0000 FZRANO
PAEM 101736Z AUTO 01010KT 9SM -SN BKN013 OVC030 M08/M09 A2888 RMK AO2 P0000 FZRANO
PAEM 101656Z AUTO 36008KT 9SM -SN OVC026 M09/M10 A2889 RMK AO2 SNB06E18B38 SLP839 P0000 T10941100 FZRANO
PAEM 101556Z AUTO 36008KT 9SM OVC021 M12/M13 A2889 RMK AO2 SNB03E54 SLP840 P0000 T11171128 FZRANO
PAEM 101456Z AUTO 36008KT 10SM BKN023 M13/M14 A2889 RMK AO2 SLP841 60000 T11281139 56015 FZRANO
PAEM 101402Z AUTO 35008KT 10SM FEW007 SCT014 M14/M16 A2890 RMK AO2 FZRANO
PAEM 101356Z AUTO 35007KT 10SM BKN014 M14/M16 A2891 RMK AO2 SNE10 SLP846 P0000 T11441161 FZRANO
PAEM 101256Z AUTO 36006KT 5SM -SN BR FEW006 OVC014 M15/M17 A2892 RMK AO2 SNB40 SLP852 P0000 T11501167 FZRANO
PAEM 101249Z AUTO 36003KT 9SM -SN SCT006 OVC014 M15/M17 A2892 RMK AO2 SNB40 P0000 FZRANO
PAEM 101156Z AUTO 01006KT 10SM OVC006 M16/M18 A2894 RMK AO2 SLP857 60000 T11611178 11122 21172 56010 FZRANO
PAEM 101141Z AUTO 01006KT 3SM BR OVC006 M16/M18 A2894 RMK AO2 FZRANO
PAEM 101133Z AUTO 02005KT 1 3/4SM BR OVC008 M16/M18 A2894 RMK AO2 CIG 005V011 FZRANO
PAEM 101056Z AUTO 02006KT 10SM OVC008 M14/M16 A2895 RMK AO2 SNB09E18 SLP861 P0000 T11391156 FZRANO
PAEM 101029Z AUTO 01006KT 10SM OVC008 M14/M16 A2895 RMK AO2 SNB09E18 P0000 FZRANO
PAEM 100956Z AUTO 01005KT 4SM BR OVC010 M13/M14 A2895 RMK AO2 SNE24 SLP862 P0000 T11281139 FZRANO
PAEM 100916Z AUTO 01006KT 2 1/2SM -SN BR FEW004 OVC010 M12/M14 A2896 RMK AO2 P0000 FZRANO
PAEM 100902Z AUTO 36004KT 1 1/4SM -SN BR SCT004 OVC010 M13/M14 A2897 RMK AO2 P0000 FZRANO
PAEM 100856Z AUTO 01006KT 1SM -SN BR BKN004 OVC010 M13/M14 A2897 RMK AO2 SNE11B43 SLP868 P0000 60000 T11281139 56005 FZRANO
PAEM 100806Z AUTO 36004KT 3/4SM -SN BR OVC004 M14/M16 A2897 RMK AO2 P0000 FZRANO
PAEM 100756Z AUTO 35005KT 3/4SM -SN BR OVC002 M14/M16 A2898 RMK AO2 SNB37 SLP869 P0000 T11391156 411061178 FZRANO
PAEM 100751Z AUTO 36005KT 1/2SM -SN FZFG OVC002 M14/M16 A2897 RMK AO2 SNB37 P0000 411061178 FZRANO
PAEM 100733Z AUTO 01004KT 3/4SM BR OVC002 M15/M17 A2898 RMK AO2 CIG 001V006 FZRANO
PAEM 100648Z AUTO 04004KT 1/4SM FZFG OVC002 M16/M17 A2899 RMK AO2 FZRANO
PAEM 100620Z AUTO 07004KT 1/2SM FZFG OVC006 M16/M17 A2899 RMK AO2 CIG 004V008 FZRANO
PAEM 100556Z AUTO 02004KT 1 1/4SM BR BKN008 OVC012 M17/M19 A2899 RMK AO2 CIG 006V011 SLP874 T11721189 11106 21178 58002 FZRANO
PAEM 100551Z AUTO 03006KT 1SM BR BKN008 OVC012 M17/M19 A2898 RMK AO2 CIG 006V011 FZRANO
PAEM 100539Z AUTO 04006KT 1 1/4SM BR SCT005 OVC012 M17/M19 A2899 RMK AO2 FZRANO
PAEM 100534Z AUTO 03005KT 1SM BR FEW003 BKN007 OVC012 M17/M19 A2899 RMK AO2 CIG 006V009 FZRANO
PAEM 100527Z AUTO 03006KT 3/4SM BR BKN005 OVC012 M17/M19 A2899 RMK AO2 CIG 003V007 FZRANO
PAEM 100520Z AUTO 04005KT 1SM BR BKN005 OVC012 M17/M19 A2899 RMK AO2 CIG 003V007 FZRANO
PAEM 100515Z AUTO 04005KT 1SM BR SCT003 OVC012 M17/M19 A2899 RMK AO2 FZRANO
PAEM 100507Z AUTO 04005KT 1SM BR OVC012 M17/M19 A2899 RMK AO2 FZRANO
PAEM 100456Z AUTO 03005KT 3/4SM BR SCT006 OVC012 M17/M19 A2899 RMK AO2 SLP875 T11721189 FZRANO
PAEM 100429Z AUTO 36003KT 1 1/2SM BR OVC006 M17/M18 A2899 RMK AO2 CIG 004V009 FZRANO
PAEM 100417Z AUTO 05003KT 1SM BR OVC006 M17/M18 A2900 RMK AO2 CIG 002V008 FZRANO
PAEM 100404Z AUTO 06003KT 1 3/4SM BR OVC004 M17/M19 A2899 RMK AO2 CIG 002V006 FZRANO
PAEM 100353Z AUTO 07005KT 2SM BR OVC002 M17/M18 A2899 RMK AO2 FZRANO
PAEM 100325Z AUTO 14004KT 3/4SM BR OVC004 M16/M17 A2899 RMK AO2 FZRANO
PAEM 100315Z AUTO 11004KT 1 1/4SM BR OVC004 M15/M17 A2899 RMK AO2 FZRANO
PAEM 100312Z AUTO 12005KT 1SM BR OVC002 M15/M17 A2899 RMK AO2 FZRANO
PAEM 100256Z AUTO 11003KT 1 1/4SM BR OVC002 M14/M16 A2899 RMK AO2 SLP876 T11441161 55003 FZRANO
PAEM 100241Z AUTO 12005KT 1 1/4SM BR OVC002 M14/M15 A2899 RMK AO2 CIG 002V005 FZRANO
PAEM 100229Z AUTO 11003KT 1SM BR OVC002 M13/M15 A2900 RMK AO2 FZRANO
PAEM 100222Z AUTO 13004KT 1/2SM FZFG OVC002 M13/M14 A2900 RMK AO2 FZRANO
PAEM 100156Z AUTO 12003KT 1/4SM FZFG OVC002 M13/M14 A2899 RMK AO2 SLP876 T11281139 FZRANO
PAEM 100140Z AUTO 12004KT 1/4SM FZFG OVC002 M13/M14 A2899 RMK AO2 FZRANO
PAEM 100105Z AUTO 00000KT 1/4SM FZFG BKN004 OVC009 M12/M13 A2899 RMK AO2 FZRANO
PAEM 100056Z AUTO 00000KT 1/2SM FZFG BKN007 OVC010 M11/M13 A2899 RMK AO2 CIG 003V008 SLP875 T11111128 FZRANO
PAEM 100045Z AUTO 00000KT 1/2SM FZFG OVC007 M11/M12 A2899 RMK AO2 CIG 003V011 FZRANO
PAEM 100037Z AUTO 21004KT 3/4SM BR OVC005 M11/M12 A2899 RMK AO2 CIG 002V008 FZRANO
PAEM 100025Z AUTO 21004KT 1/2SM FZFG SCT003 OVC007 M11/M12 A2900 RMK AO2 FZRANO
PAEM 100005Z AUTO 20004KT 1/4SM FZFG OVC003 M11/M12 A2900 RMK AO2 FZRANO
PAEM 092356Z AUTO 20003KT 1/2SM FZFG OVC003 M11/M12 A2900 RMK AO2 SLP879 60000 T11061117 11106 21122 56005 FZRANO
PAEM 092256Z AUTO 00000KT 1/2SM FZFG OVC003 M11/M12 A2901 RMK AO2 SLP881 T11111122 FZRANO
PAEM 092243Z AUTO 00000KT 1/2SM FZFG OVC005 M12/M13 A2901 RMK AO2 CIG 004V007 FZRANO
PAEM 092232Z AUTO 00000KT 3/4SM BR OVC005 M12/M13 A2901 RMK AO2 CIG 004V007 FZRANO
PAEM 092224Z AUTO 00000KT 1 3/4SM BR OVC005 M11/M13 A2901 RMK AO2 FZRANO
PAEM 092216Z AUTO 00000KT 7SM OVC005 M12/M13 A2901 RMK AO2 FZRANO
PAEM 092156Z AUTO 20004KT 10SM BKN007 OVC020 M12/M13 A2901 RMK AO2 CIG 005V009 SLP880 T11171128 FZRANO
PAEM 092056Z AUTO 20005KT 10SM FEW008 OVC018 M12/M13 A2902 RMK AO2 SLP884 60000 T11171128 50002 FZRANO
PAEM 092047Z AUTO 20004KT 10SM SCT008 SCT013 OVC018 M12/M13 A2902 RMK AO2 FZRANO
PAEM 091956Z AUTO 19005KT 10SM OVC008 M12/M14 A2902 RMK AO2 SLP885 T11221139 FZRANO
PAEM 091928Z AUTO 21004KT 10SM BKN006 OVC017 M12/M13 A2902 RMK AO2 CIG 004V009 FZRANO
PAEM 091913Z AUTO 20004KT 7SM BKN004 BKN010 OVC017 M12/M13 A2902 RMK AO2 FZRANO
PAEM 091904Z AUTO 00000KT 5SM BR SCT004 BKN010 OVC017 M12/M13 A2902 RMK AO2 CIG 008V012 FZRANO
PAEM 091856Z AUTO 20003KT 5SM BR BKN008 BKN012 OVC017 M12/M13 A2901 RMK AO2 SNE33 CIG 005V010 SLP882 P0000 T11171128 FZRANO
PAEM 091846Z AUTO 20003KT 5SM BR OVC008 M12/M13 A2901 RMK AO2 SNE33 CIG 005V012 P0000 FZRANO